createdAt,value
2022-11-27T00:02:28.717Z,101626.86
2022-11-27T00:07:37.566Z,101630.12
2022-11-27T00:12:44.518Z,101634.38
2022-11-27T00:17:51.452Z,101638.83
2022-11-27T00:22:58.566Z,101631.67
2022-11-27T00:28:07.903Z,101628.07
2022-11-27T00:33:14.674Z,101635.65
2022-11-27T00:38:21.591Z,101646.02
2022-11-27T00:43:28.589Z,101650.76
2022-11-27T00:48:35.547Z,101652.42
2022-11-27T00:53:42.893Z,101649.55
2022-11-27T00:58:52.644Z,101649.20
2022-11-27T01:04:00.884Z,101646.12
2022-11-27T01:09:08.081Z,101642.92
2022-11-27T01:14:17.539Z,101637.13
2022-11-27T01:19:24.480Z,101646.17
2022-11-27T01:24:31.345Z,101644.52
2022-11-27T01:29:38.553Z,101642.13
2022-11-27T01:34:45.604Z,101641.80
2022-11-27T01:39:52.398Z,101637.86
2022-11-27T01:44:59.332Z,101640.33
2022-11-27T01:50:13.073Z,101638.80
2022-11-27T01:55:27.067Z,101641.54
2022-11-27T02:00:34.190Z,101637.89
2022-11-27T02:05:41.239Z,101638.39
2022-11-27T02:10:53.693Z,101643.85
2022-11-27T02:16:18.230Z,101644.11
2022-11-27T02:21:32.402Z,101643.11
2022-11-27T02:27:20.969Z,101638.17
2022-11-27T02:32:33.502Z,101638.80
2022-11-27T02:37:46.874Z,101638.91
2022-11-27T02:43:00.570Z,101628.48
2022-11-27T02:48:10.135Z,101626.73
2022-11-27T02:53:23.018Z,101629.45
2022-11-27T02:58:31.739Z,101619.11
2022-11-27T03:03:42.761Z,101618.10
2022-11-27T03:08:56.086Z,101633.27
2022-11-27T03:14:07.102Z,101637.13
2022-11-27T03:19:19.795Z,101635.32
2022-11-27T03:24:28.254Z,101627.56
2022-11-27T03:29:40.875Z,101628.09
2022-11-27T03:34:48.849Z,101621.50
2022-11-27T03:39:56.187Z,101616.94
2022-11-27T03:45:09.247Z,101620.38
2022-11-27T03:50:34.719Z,101613.56
2022-11-27T03:55:50.644Z,101604.89
2022-11-27T04:01:00.491Z,101597.23
2022-11-27T04:06:07.470Z,101596.70
2022-11-27T04:11:14.393Z,101595.78
2022-11-27T04:16:21.274Z,101597.77
2022-11-27T04:21:28.203Z,101599.86
2022-11-27T04:26:37.256Z,101596.95
2022-11-27T04:31:44.109Z,101588.45
2022-11-27T04:36:51.022Z,101584.88
2022-11-27T04:41:57.993Z,101574.69
2022-11-27T04:47:05.189Z,101573.02
2022-11-27T04:52:12.126Z,101572.66
2022-11-27T04:57:19.221Z,101567.02
2022-11-27T05:02:26.132Z,101563.06
2022-11-27T05:07:33.091Z,101569.33
2022-11-27T05:12:39.890Z,101565.57
2022-11-27T05:17:47.443Z,101567.59
2022-11-27T05:22:54.352Z,101569.42
2022-11-27T05:28:01.374Z,101582.52
2022-11-27T05:33:08.313Z,101595.27
2022-11-27T05:38:24.304Z,101591.90
2022-11-27T05:43:31.758Z,101590.92
2022-11-27T05:48:39.519Z,101599.16
2022-11-27T05:53:46.766Z,101607.05
2022-11-27T05:58:53.696Z,101604.02
2022-11-27T06:04:01.906Z,101596.35
2022-11-27T06:09:12.749Z,101607.27
2022-11-27T06:14:20.887Z,101617.09
2022-11-27T06:19:28.318Z,101622.98
2022-11-27T06:24:35.438Z,101625.38
2022-11-27T06:29:42.301Z,101629.12
2022-11-27T06:34:49.340Z,101627.92
2022-11-27T06:39:56.546Z,101628.06
2022-11-27T06:45:03.536Z,101630.35
2022-11-27T06:50:12.467Z,101628.69
2022-11-27T06:55:19.508Z,101626.73
2022-11-27T07:00:29.266Z,101624.13
2022-11-27T07:05:36.871Z,101628.23
2022-11-27T07:10:43.680Z,101633.97
2022-11-27T07:15:50.971Z,101631.93
2022-11-27T07:20:58.289Z,101634.07
2022-11-27T07:26:10.286Z,101627.04
2022-11-27T07:31:19.077Z,101631.39
2022-11-27T07:36:27.805Z,101624.85
2022-11-27T07:41:36.008Z,101615.34
2022-11-27T07:46:42.895Z,101612.62
2022-11-27T07:51:49.697Z,101615.27
2022-11-27T07:56:56.456Z,101611.46
2022-11-27T08:02:03.286Z,101609.13
2022-11-27T08:07:10.380Z,101604.20
2022-11-27T08:12:17.725Z,101609.60
2022-11-27T08:17:24.630Z,101609.05
2022-11-27T08:22:31.696Z,101613.84
2022-11-27T08:27:38.560Z,101610.20
2022-11-27T08:32:46.130Z,101613.84
2022-11-27T08:37:52.956Z,101614.08
2022-11-27T08:43:00.823Z,101608.16
2022-11-27T08:48:08.220Z,101610.35
2022-11-27T08:53:15.892Z,101611.39
2022-11-27T08:58:22.826Z,101613.84
2022-11-27T09:03:29.717Z,101614.05
2022-11-27T09:08:36.658Z,101609.63
2022-11-27T09:13:46.399Z,101610.52
2022-11-27T09:18:55.238Z,101601.92
2022-11-27T09:24:03.066Z,101602.31
2022-11-27T09:29:10.119Z,101604.60
2022-11-27T09:34:18.328Z,101604.34
2022-11-27T09:39:30.556Z,101599.34
2022-11-27T09:44:43.195Z,101592.84
2022-11-27T09:49:55.141Z,101588.78
2022-11-27T09:55:07.462Z,101584.48
2022-11-27T10:00:19.068Z,101574.55
2022-11-27T10:05:29.829Z,101566.46
2022-11-27T10:10:44.910Z,101557.57
2022-11-27T10:15:56.993Z,101555.58
2022-11-27T10:21:17.683Z,101541.83
2022-11-27T10:26:30.450Z,101533.86
2022-11-27T10:31:40.956Z,101524.88
2022-11-27T10:36:51.718Z,101528.59
2022-11-27T10:42:07.535Z,101530.66
2022-11-27T10:47:16.801Z,101529.23
2022-11-27T10:52:24.096Z,101522.58
2022-11-27T10:57:52.649Z,101514.83
2022-11-27T11:03:05.196Z,101509.91
2022-11-27T11:08:20.489Z,101515.40
2022-11-27T11:13:29.312Z,101508.98
2022-11-27T11:18:44.170Z,101501.78
2022-11-27T11:24:01.088Z,101499.96
2022-11-27T11:29:30.095Z,101495.35
2022-11-27T11:34:42.560Z,101496.23
2022-11-27T11:39:54.727Z,101490.63
2022-11-27T11:45:05.649Z,101486.13
2022-11-27T11:50:15.509Z,101484.16
2022-11-27T11:55:27.863Z,101480.76
2022-11-27T12:01:11.414Z,101476.69
2022-11-27T12:06:40.450Z,101478.05
2022-11-27T12:11:57.249Z,101477.89
2022-11-27T12:17:18.718Z,101470.89
2022-11-27T12:22:40.459Z,101456.36
2022-11-27T12:27:57.613Z,101456.16
2022-11-27T12:33:21.665Z,101459.39
2022-11-27T12:38:52.860Z,101458.19
2022-11-27T12:44:01.127Z,101457.14
2022-11-27T12:49:15.289Z,101460.00
2022-11-27T12:54:30.940Z,101456.40
2022-11-27T12:59:45.125Z,101459.92
2022-11-27T13:04:58.509Z,101460.20
2022-11-27T13:10:17.548Z,101452.49
2022-11-27T13:15:29.132Z,101453.35
2022-11-27T13:20:41.931Z,101443.60
2022-11-27T13:25:52.588Z,101437.10
2022-11-27T13:31:02.225Z,101436.55
2022-11-27T13:36:20.023Z,101429.02
2022-11-27T13:41:32.523Z,101423.70
2022-11-27T13:46:49.494Z,101415.33
2022-11-27T13:52:07.883Z,101415.30
2022-11-27T13:57:30.378Z,101405.73
2022-11-27T14:02:47.875Z,101402.48
2022-11-27T14:07:57.668Z,101400.38
2022-11-27T14:13:07.348Z,101398.80
2022-11-27T14:18:20.663Z,101396.55
2022-11-27T14:23:33.496Z,101392.23
2022-11-27T14:28:42.082Z,101387.79
2022-11-27T14:34:13.659Z,101392.00
2022-11-27T14:39:26.975Z,101387.14
2022-11-27T14:44:34.435Z,101379.27
2022-11-27T14:49:43.772Z,101371.54
2022-11-27T14:54:52.033Z,101367.75
2022-11-27T15:00:16.088Z,101369.06
2022-11-27T15:05:26.906Z,101371.72
2022-11-27T15:10:38.097Z,101369.95
2022-11-27T15:15:53.912Z,101363.25
2022-11-27T15:21:02.584Z,101362.83
2022-11-27T15:26:16.839Z,101356.27
2022-11-27T15:31:29.785Z,101350.61
2022-11-27T15:36:45.378Z,101341.48
2022-11-27T15:41:58.350Z,101349.59
2022-11-27T15:47:07.123Z,101353.27
2022-11-27T15:52:14.356Z,101359.00
2022-11-27T15:57:21.255Z,101364.95
2022-11-27T16:02:30.613Z,101365.23
2022-11-27T16:07:37.840Z,101362.95
2022-11-27T16:12:47.389Z,101360.52
2022-11-27T16:17:55.492Z,101353.52
2022-11-27T16:23:02.753Z,101358.63
2022-11-27T16:28:10.327Z,101333.73
2022-11-27T16:33:20.140Z,101329.92
2022-11-27T16:38:28.789Z,101335.14
2022-11-27T16:43:39.959Z,101328.45
2022-11-27T16:48:51.120Z,101325.33
2022-11-27T16:54:00.909Z,101320.67
2022-11-27T16:59:10.603Z,101319.11
2022-11-27T17:04:21.122Z,101312.08
2022-11-27T17:09:29.543Z,101298.25
2022-11-27T17:14:38.926Z,101292.36
2022-11-27T17:19:49.228Z,101286.34
2022-11-27T17:24:58.522Z,101282.86
2022-11-27T17:30:07.111Z,101286.36
2022-11-27T17:35:15.821Z,101279.31
2022-11-27T17:40:23.128Z,101283.20
2022-11-27T17:45:30.368Z,101278.06
2022-11-27T17:50:37.625Z,101274.45
2022-11-27T17:55:44.972Z,101272.17
2022-11-27T18:00:52.678Z,101272.13
2022-11-27T18:06:03.189Z,101275.31
2022-11-27T18:11:14.686Z,101270.89
2022-11-27T18:16:24.529Z,101277.54
2022-11-27T18:21:31.669Z,101275.67
2022-11-27T18:27:06.674Z,101269.40
2022-11-27T18:32:06.575Z,101263.30
2022-11-27T18:37:14.547Z,101256.88
2022-11-27T18:42:22.227Z,101254.34
2022-11-27T18:47:35.135Z,101251.63
2022-11-27T18:52:44.101Z,101245.84
2022-11-27T18:57:52.111Z,101238.17
2022-11-27T19:03:00.472Z,101239.88
2022-11-27T19:08:09.185Z,101238.19
2022-11-27T19:13:16.540Z,101233.77
2022-11-27T19:18:23.618Z,101231.73
2022-11-27T19:23:35.190Z,101227.34
2022-11-27T19:28:45.815Z,101227.52
2022-11-27T19:33:55.713Z,101222.09
2022-11-27T19:39:05.543Z,101211.70
2022-11-27T19:44:13.884Z,101209.67
2022-11-27T19:49:22.431Z,101212.39
2022-11-27T19:54:30.005Z,101204.38
2022-11-27T19:59:37.914Z,101195.84
2022-11-27T20:04:44.907Z,101194.98
2022-11-27T20:09:52.326Z,101193.06
2022-11-27T20:15:00.252Z,101198.95
2022-11-27T20:20:10.403Z,101198.02
2022-11-27T20:25:20.242Z,101195.59
2022-11-27T20:30:28.342Z,101187.84
2022-11-27T20:35:35.267Z,101184.87
2022-11-27T20:40:42.910Z,101175.75
2022-11-27T20:45:52.920Z,101167.48
2022-11-27T20:51:05.549Z,101165.45
2022-11-27T20:56:15.484Z,101163.27
2022-11-27T21:01:24.866Z,101155.62
2022-11-27T21:06:38.084Z,101142.49
2022-11-27T21:11:49.163Z,101133.60
2022-11-27T21:17:04.356Z,101134.05
2022-11-27T21:22:13.729Z,101128.34
2022-11-27T21:27:20.686Z,101124.91
2022-11-27T21:32:28.554Z,101131.63
2022-11-27T21:37:35.979Z,101132.61
2022-11-27T21:42:44.803Z,101127.89
2022-11-27T21:47:52.342Z,101121.66
2022-11-27T21:52:59.217Z,101127.10
2022-11-27T21:58:07.398Z,101123.73
2022-11-27T22:03:14.615Z,101121.48
2022-11-27T22:13:46.868Z,101126.39
2022-11-27T22:18:59.519Z,101126.13
2022-11-27T22:24:07.662Z,101124.71
2022-11-27T22:29:14.550Z,101117.66
2022-11-27T22:34:22.455Z,101115.83
2022-11-27T22:39:29.502Z,101111.59
2022-11-27T22:44:36.392Z,101115.53
2022-11-27T22:49:43.360Z,101108.92
2022-11-27T22:54:50.641Z,101110.35
2022-11-27T22:59:57.612Z,101103.08
2022-11-27T23:05:04.936Z,101095.74
2022-11-27T23:10:13.197Z,101085.81
2022-11-27T23:15:20.455Z,101092.70
2022-11-27T23:20:28.107Z,101093.69
2022-11-27T23:25:35.038Z,101090.66
2022-11-27T23:30:41.934Z,101087.80
2022-11-27T23:35:48.803Z,101083.41
2022-11-27T23:40:55.735Z,101081.52
2022-11-27T23:46:05.275Z,101075.91
2022-11-27T23:51:13.795Z,101069.99
2022-11-27T23:56:22.363Z,101070.99
